sensor_id;sensor_type;location;lat;lon;timestamp;temperature;humidity
19389;DHT22;9830;41.876;23.474;2023-04-01T00:01:38;3.60;99.90
19389;DHT22;9830;41.876;23.474;2023-04-01T00:04:04;3.50;99.90
19389;DHT22;9830;41.876;23.474;2023-04-01T00:06:30;3.50;99.90
19389;DHT22;9830;41.876;23.474;2023-04-01T00:08:56;3.50;99.90
19389;DHT22;9830;41.876;23.474;2023-04-01T00:11:22;3.50;99.90
19389;DHT22;9830;41.876;23.474;2023-04-01T00:13:48;3.50;99.90
19389;DHT22;9830;41.876;23.474;2023-04-01T00:16:13;3.50;99.90
19389;DHT22;9830;41.876;23.474;2023-04-01T00:18:39;3.50;99.90
19389;DHT22;9830;41.876;23.474;2023-04-01T00:21:06;3.50;99.90
19389;DHT22;9830;41.876;23.474;2023-04-01T00:23:32;3.40;99.90
19389;DHT22;9830;41.876;23.474;2023-04-01T00:26:00;3.40;99.90
19389;DHT22;9830;41.876;23.474;2023-04-01T00:28:26;3.50;99.90
19389;DHT22;9830;41.876;23.474;2023-04-01T00:30:52;3.50;99.90
19389;DHT22;9830;41.876;23.474;2023-04-01T00:33:18;3.50;99.90
19389;DHT22;9830;41.876;23.474;2023-04-01T00:35:44;3.40;99.90
19389;DHT22;9830;41.876;23.474;2023-04-01T00:38:10;3.40;99.90
19389;DHT22;9830;41.876;23.474;2023-04-01T00:40:43;3.50;99.90
19389;DHT22;9830;41.876;23.474;2023-04-01T00:43:12;3.40;99.90
19389;DHT22;9830;41.876;23.474;2023-04-01T00:45:41;3.50;99.90
19389;DHT22;9830;41.876;23.474;2023-04-01T00:48:11;3.50;99.90
19389;DHT22;9830;41.876;23.474;2023-04-01T00:50:40;3.50;99.90
19389;DHT22;9830;41.876;23.474;2023-04-01T00:53:08;3.50;99.90
19389;DHT22;9830;41.876;23.474;2023-04-01T00:55:37;3.50;99.90
19389;DHT22;9830;41.876;23.474;2023-04-01T00:58:08;3.30;99.90
19389;DHT22;9830;41.876;23.474;2023-04-01T01:00:37;3.30;99.90
19389;DHT22;9830;41.876;23.474;2023-04-01T01:03:03;3.40;99.90
19389;DHT22;9830;41.876;23.474;2023-04-01T01:10:50;3.20;99.90
19389;DHT22;9830;41.876;23.474;2023-04-01T01:13:42;3.30;99.90
19389;DHT22;9830;41.876;23.474;2023-04-01T01:16:26;3.30;99.90
19389;DHT22;9830;41.876;23.474;2023-04-01T01:22:26;3.30;99.90
19389;DHT22;9830;41.876;23.474;2023-04-01T01:25:07;3.20;99.90
19389;DHT22;9830;41.876;23.474;2023-04-01T01:27:34;3.10;99.90
19389;DHT22;9830;41.876;23.474;2023-04-01T01:35:46;3.10;99.90
19389;DHT22;9830;41.876;23.474;2023-04-01T01:38:16;3.10;99.90
19389;DHT22;9830;41.876;23.474;2023-04-01T01:40:45;3.10;99.90
19389;DHT22;9830;41.876;23.474;2023-04-01T01:43:16;3.00;99.90
19389;DHT22;9830;41.876;23.474;2023-04-01T01:45:47;3.00;99.90
19389;DHT22;9830;41.876;23.474;2023-04-01T01:48:14;2.90;99.90
19389;DHT22;9830;41.876;23.474;2023-04-01T01:50:42;2.90;99.90
19389;DHT22;9830;41.876;23.474;2023-04-01T01:53:11;2.80;99.90
19389;DHT22;9830;41.876;23.474;2023-04-01T01:55:40;2.80;99.90
19389;DHT22;9830;41.876;23.474;2023-04-01T02:00:44;2.80;99.90
19389;DHT22;9830;41.876;23.474;2023-04-01T02:03:13;2.70;99.90
19389;DHT22;9830;41.876;23.474;2023-04-01T02:05:40;2.60;99.90
19389;DHT22;9830;41.876;23.474;2023-04-01T02:08:16;2.60;99.90
19389;DHT22;9830;41.876;23.474;2023-04-01T02:10:52;2.50;99.90
19389;DHT22;9830;41.876;23.474;2023-04-01T02:13:34;2.40;99.90
19389;DHT22;9830;41.876;23.474;2023-04-01T02:16:06;2.50;99.90
19389;DHT22;9830;41.876;23.474;2023-04-01T02:18:36;2.50;99.90
19389;DHT22;9830;41.876;23.474;2023-04-01T02:21:05;2.50;99.90
19389;DHT22;9830;41.876;23.474;2023-04-01T02:23:33;2.50;99.90
19389;DHT22;9830;41.876;23.474;2023-04-01T02:26:00;2.50;99.90
19389;DHT22;9830;41.876;23.474;2023-04-01T02:28:28;2.60;99.90
19389;DHT22;9830;41.876;23.474;2023-04-01T02:30:55;2.50;99.90
19389;DHT22;9830;41.876;23.474;2023-04-01T02:33:23;2.50;99.90
19389;DHT22;9830;41.876;23.474;2023-04-01T02:35:49;2.50;99.90
19389;DHT22;9830;41.876;23.474;2023-04-01T02:38:15;2.40;99.90
19389;DHT22;9830;41.876;23.474;2023-04-01T02:40:45;2.20;99.90
19389;DHT22;9830;41.876;23.474;2023-04-01T02:43:11;2.00;99.90
19389;DHT22;9830;41.876;23.474;2023-04-01T02:45:37;2.00;99.90
19389;DHT22;9830;41.876;23.474;2023-04-01T02:48:03;2.00;99.90
19389;DHT22;9830;41.876;23.474;2023-04-01T02:50:29;1.90;99.90
19389;DHT22;9830;41.876;23.474;2023-04-01T02:52:54;1.90;99.90
19389;DHT22;9830;41.876;23.474;2023-04-01T02:55:21;2.00;99.90
19389;DHT22;9830;41.876;23.474;2023-04-01T02:57:47;1.90;99.90
19389;DHT22;9830;41.876;23.474;2023-04-01T03:00:13;1.80;99.90
19389;DHT22;9830;41.876;23.474;2023-04-01T03:02:39;1.80;99.90
19389;DHT22;9830;41.876;23.474;2023-04-01T03:05:05;1.90;99.90
19389;DHT22;9830;41.876;23.474;2023-04-01T03:07:31;2.00;99.90
19389;DHT22;9830;41.876;23.474;2023-04-01T03:09:57;2.00;99.90
19389;DHT22;9830;41.876;23.474;2023-04-01T03:12:22;2.00;99.90
19389;DHT22;9830;41.876;23.474;2023-04-01T03:14:48;2.20;99.90
19389;DHT22;9830;41.876;23.474;2023-04-01T03:17:14;2.20;99.90
19389;DHT22;9830;41.876;23.474;2023-04-01T03:19:40;2.20;99.90
19389;DHT22;9830;41.876;23.474;2023-04-01T03:22:06;2.30;99.90
19389;DHT22;9830;41.876;23.474;2023-04-01T03:24:31;2.40;99.90
19389;DHT22;9830;41.876;23.474;2023-04-01T03:26:57;2.40;99.90
19389;DHT22;9830;41.876;23.474;2023-04-01T03:29:23;2.40;99.90
19389;DHT22;9830;41.876;23.474;2023-04-01T03:31:49;2.40;99.90
19389;DHT22;9830;41.876;23.474;2023-04-01T03:34:14;2.40;99.90
19389;DHT22;9830;41.876;23.474;2023-04-01T03:36:40;2.40;99.90
19389;DHT22;9830;41.876;23.474;2023-04-01T03:39:06;2.40;99.90
19389;DHT22;9830;41.876;23.474;2023-04-01T03:41:31;2.40;99.90
19389;DHT22;9830;41.876;23.474;2023-04-01T03:43:57;2.40;99.90
19389;DHT22;9830;41.876;23.474;2023-04-01T03:46:23;2.40;99.90
19389;DHT22;9830;41.876;23.474;2023-04-01T03:48:48;2.40;99.90
19389;DHT22;9830;41.876;23.474;2023-04-01T03:51:14;2.50;99.90
19389;DHT22;9830;41.876;23.474;2023-04-01T03:53:40;2.50;99.90
19389;DHT22;9830;41.876;23.474;2023-04-01T03:56:06;2.60;99.90
19389;DHT22;9830;41.876;23.474;2023-04-01T03:58:32;2.60;99.90
19389;DHT22;9830;41.876;23.474;2023-04-01T04:00:58;2.50;99.90
19389;DHT22;9830;41.876;23.474;2023-04-01T04:03:24;2.50;99.90
19389;DHT22;9830;41.876;23.474;2023-04-01T04:05:49;2.50;99.90
19389;DHT22;9830;41.876;23.474;2023-04-01T04:08:16;2.50;99.90
19389;DHT22;9830;41.876;23.474;2023-04-01T04:10:42;2.60;99.90
19389;DHT22;9830;41.876;23.474;2023-04-01T04:13:08;2.60;99.90
19389;DHT22;9830;41.876;23.474;2023-04-01T04:15:36;2.50;99.90
19389;DHT22;9830;41.876;23.474;2023-04-01T04:18:03;2.60;99.90
19389;DHT22;9830;41.876;23.474;2023-04-01T04:20:29;2.60;99.90
19389;DHT22;9830;41.876;23.474;2023-04-01T04:22:54;2.70;99.90
19389;DHT22;9830;41.876;23.474;2023-04-01T04:25:20;2.90;99.90
19389;DHT22;9830;41.876;23.474;2023-04-01T04:27:46;2.90;99.90
19389;DHT22;9830;41.876;23.474;2023-04-01T04:30:12;3.00;99.90
19389;DHT22;9830;41.876;23.474;2023-04-01T04:32:37;3.10;99.90
19389;DHT22;9830;41.876;23.474;2023-04-01T04:35:04;3.20;99.90
19389;DHT22;9830;41.876;23.474;2023-04-01T04:37:31;3.20;99.90
19389;DHT22;9830;41.876;23.474;2023-04-01T04:39:57;3.10;99.90
19389;DHT22;9830;41.876;23.474;2023-04-01T04:42:23;3.10;99.90
19389;DHT22;9830;41.876;23.474;2023-04-01T04:44:48;3.00;99.90
19389;DHT22;9830;41.876;23.474;2023-04-01T04:47:14;3.10;99.90
19389;DHT22;9830;41.876;23.474;2023-04-01T04:49:40;3.10;99.90
19389;DHT22;9830;41.876;23.474;2023-04-01T04:52:06;3.10;99.90
19389;DHT22;9830;41.876;23.474;2023-04-01T04:54:32;3.10;99.90
19389;DHT22;9830;41.876;23.474;2023-04-01T04:56:58;3.20;99.90
19389;DHT22;9830;41.876;23.474;2023-04-01T04:59:24;3.50;99.90
19389;DHT22;9830;41.876;23.474;2023-04-01T05:01:50;3.60;99.90
19389;DHT22;9830;41.876;23.474;2023-04-01T05:04:16;4.00;99.90
19389;DHT22;9830;41.876;23.474;2023-04-01T05:06:43;4.40;99.90
19389;DHT22;9830;41.876;23.474;2023-04-01T05:09:10;5.10;99.90
19389;DHT22;9830;41.876;23.474;2023-04-01T05:11:41;6.30;99.90
19389;DHT22;9830;41.876;23.474;2023-04-01T05:14:13;8.30;99.90
19389;DHT22;9830;41.876;23.474;2023-04-01T05:16:39;9.80;99.70
19389;DHT22;9830;41.876;23.474;2023-04-01T05:19:05;10.00;96.10
19389;DHT22;9830;41.876;23.474;2023-04-01T05:21:34;9.50;96.70
19389;DHT22;9830;41.876;23.474;2023-04-01T05:24:00;8.50;99.30
19389;DHT22;9830;41.876;23.474;2023-04-01T05:26:29;7.90;99.90
19389;DHT22;9830;41.876;23.474;2023-04-01T05:28:55;8.00;99.90
19389;DHT22;9830;41.876;23.474;2023-04-01T05:31:21;7.60;99.90
19389;DHT22;9830;41.876;23.474;2023-04-01T05:33:49;8.10;99.90
19389;DHT22;9830;41.876;23.474;2023-04-01T05:36:16;7.70;99.90
19389;DHT22;9830;41.876;23.474;2023-04-01T05:38:42;7.60;99.90
19389;DHT22;9830;41.876;23.474;2023-04-01T05:41:09;8.40;99.90
19389;DHT22;9830;41.876;23.474;2023-04-01T05:43:39;9.70;99.70
19389;DHT22;9830;41.876;23.474;2023-04-01T05:46:05;11.30;92.40
19389;DHT22;9830;41.876;23.474;2023-04-01T05:48:34;11.40;83.20
19389;DHT22;9830;41.876;23.474;2023-04-01T05:51:03;9.90;91.10
19389;DHT22;9830;41.876;23.474;2023-04-01T05:53:33;10.80;90.30
19389;DHT22;9830;41.876;23.474;2023-04-01T05:56:03;11.00;84.40
19389;DHT22;9830;41.876;23.474;2023-04-01T05:58:29;11.90;83.60
19389;DHT22;9830;41.876;23.474;2023-04-01T06:01:04;14.30;65.50
19389;DHT22;9830;41.876;23.474;2023-04-01T06:03:33;13.80;65.90
19389;DHT22;9830;41.876;23.474;2023-04-01T06:05:59;15.90;58.10
19389;DHT22;9830;41.876;23.474;2023-04-01T06:08:27;16.00;54.00
19389;DHT22;9830;41.876;23.474;2023-04-01T06:11:18;17.20;50.60
19389;DHT22;9830;41.876;23.474;2023-04-01T06:22:27;18.90;46.00
19389;DHT22;9830;41.876;23.474;2023-04-01T06:31:51;18.80;46.00
19389;DHT22;9830;41.876;23.474;2023-04-01T06:50:54;19.80;43.40
19389;DHT22;9830;41.876;23.474;2023-04-01T06:56:10;17.80;44.70
19389;DHT22;9830;41.876;23.474;2023-04-01T06:58:42;17.10;48.70
19389;DHT22;9830;41.876;23.474;2023-04-01T07:01:14;17.00;49.50
19389;DHT22;9830;41.876;23.474;2023-04-01T07:03:50;15.50;51.60
19389;DHT22;9830;41.876;23.474;2023-04-01T07:06:36;15.20;56.10
19389;DHT22;9830;41.876;23.474;2023-04-01T07:09:14;14.60;55.80
19389;DHT22;9830;41.876;23.474;2023-04-01T07:11:42;14.40;58.10
19389;DHT22;9830;41.876;23.474;2023-04-01T07:14:30;13.30;62.30
19389;DHT22;9830;41.876;23.474;2023-04-01T07:17:15;12.70;64.60
19389;DHT22;9830;41.876;23.474;2023-04-01T07:19:52;12.60;69.70
19389;DHT22;9830;41.876;23.474;2023-04-01T07:22:29;12.30;73.70
19389;DHT22;9830;41.876;23.474;2023-04-01T07:24:59;12.20;74.70
19389;DHT22;9830;41.876;23.474;2023-04-01T07:27:26;12.10;75.40
19389;DHT22;9830;41.876;23.474;2023-04-01T07:29:55;12.00;75.60
19389;DHT22;9830;41.876;23.474;2023-04-01T07:32:30;11.90;74.10
19389;DHT22;9830;41.876;23.474;2023-04-01T07:35:12;12.10;75.20
19389;DHT22;9830;41.876;23.474;2023-04-01T07:40:48;12.00;76.00
19389;DHT22;9830;41.876;23.474;2023-04-01T07:43:35;12.30;75.50
19389;DHT22;9830;41.876;23.474;2023-04-01T07:49:12;12.30;73.60
19389;DHT22;9830;41.876;23.474;2023-04-01T07:52:11;12.20;75.40
19389;DHT22;9830;41.876;23.474;2023-04-01T07:55:03;11.90;76.40
19389;DHT22;9830;41.876;23.474;2023-04-01T08:14:04;11.70;83.50
19389;DHT22;9830;41.876;23.474;2023-04-01T08:23:21;12.50;75.80
19389;DHT22;9830;41.876;23.474;2023-04-01T08:25:28;12.80;75.00
19389;DHT22;9830;41.876;23.474;2023-04-01T08:28:03;13.40;71.40
19389;DHT22;9830;41.876;23.474;2023-04-01T08:30:44;13.90;66.20
19389;DHT22;9830;41.876;23.474;2023-04-01T08:33:21;14.20;63.30
19389;DHT22;9830;41.876;23.474;2023-04-01T08:36:03;14.20;64.60
19389;DHT22;9830;41.876;23.474;2023-04-01T08:52:34;14.10;65.60
19389;DHT22;9830;41.876;23.474;2023-04-01T09:08:24;15.40;60.00
19389;DHT22;9830;41.876;23.474;2023-04-01T09:17:12;15.60;58.80
19389;DHT22;9830;41.876;23.474;2023-04-01T09:25:23;15.60;58.30
19389;DHT22;9830;41.876;23.474;2023-04-01T09:28:38;15.40;60.00
19389;DHT22;9830;41.876;23.474;2023-04-01T09:45:23;18.20;55.40
19389;DHT22;9830;41.876;23.474;2023-04-01T09:59:57;20.50;47.70
19389;DHT22;9830;41.876;23.474;2023-04-01T10:07:51;19.00;48.80
19389;DHT22;9830;41.876;23.474;2023-04-01T10:30:34;18.40;50.90
19389;DHT22;9830;41.876;23.474;2023-04-01T10:50:31;16.90;55.50
19389;DHT22;9830;41.876;23.474;2023-04-01T10:53:31;16.90;55.10
19389;DHT22;9830;41.876;23.474;2023-04-01T11:11:28;17.90;51.60
19389;DHT22;9830;41.876;23.474;2023-04-01T11:23:12;18.10;51.40
19389;DHT22;9830;41.876;23.474;2023-04-01T11:34:16;18.80;48.30
19389;DHT22;9830;41.876;23.474;2023-04-01T11:37:11;18.80;49.40
19389;DHT22;9830;41.876;23.474;2023-04-01T11:42:45;19.00;48.10
19389;DHT22;9830;41.876;23.474;2023-04-01T11:45:37;19.80;45.40
19389;DHT22;9830;41.876;23.474;2023-04-01T11:48:36;19.80;47.60
19389;DHT22;9830;41.876;23.474;2023-04-01T12:02:33;20.20;43.00
19389;DHT22;9830;41.876;23.474;2023-04-01T12:10:40;21.20;41.40
19389;DHT22;9830;41.876;23.474;2023-04-01T12:16:43;22.40;39.60
19389;DHT22;9830;41.876;23.474;2023-04-01T12:19:39;21.70;41.60
19389;DHT22;9830;41.876;23.474;2023-04-01T12:22:23;20.70;42.20
19389;DHT22;9830;41.876;23.474;2023-04-01T12:30:49;17.60;48.80
19389;DHT22;9830;41.876;23.474;2023-04-01T12:34:09;17.20;57.70
19389;DHT22;9830;41.876;23.474;2023-04-01T12:36:40;17.50;70.70
19389;DHT22;9830;41.876;23.474;2023-04-01T12:57:02;18.50;78.00
19389;DHT22;9830;41.876;23.474;2023-04-01T13:11:16;19.10;60.20
19389;DHT22;9830;41.876;23.474;2023-04-01T13:21:50;17.50;62.60
19389;DHT22;9830;41.876;23.474;2023-04-01T13:27:20;16.80;64.40
19389;DHT22;9830;41.876;23.474;2023-04-01T13:35:35;16.50;78.90
19389;DHT22;9830;41.876;23.474;2023-04-01T13:44:35;16.90;80.60
19389;DHT22;9830;41.876;23.474;2023-04-01T13:58:30;16.10;79.10
19389;DHT22;9830;41.876;23.474;2023-04-01T14:01:15;16.10;79.40
19389;DHT22;9830;41.876;23.474;2023-04-01T14:24:23;16.40;73.50
19389;DHT22;9830;41.876;23.474;2023-04-01T14:29:35;16.20;73.10
19389;DHT22;9830;41.876;23.474;2023-04-01T14:32:44;15.90;75.10
19389;DHT22;9830;41.876;23.474;2023-04-01T14:38:35;14.90;81.10
19389;DHT22;9830;41.876;23.474;2023-04-01T14:49:32;14.40;81.60
19389;DHT22;9830;41.876;23.474;2023-04-01T14:52:33;14.30;84.50
19389;DHT22;9830;41.876;23.474;2023-04-01T14:55:02;14.20;88.30
19389;DHT22;9830;41.876;23.474;2023-04-01T15:12:05;9.50;99.90
19389;DHT22;9830;41.876;23.474;2023-04-01T15:15:01;9.20;99.90
19389;DHT22;9830;41.876;23.474;2023-04-01T15:17:50;9.20;99.90
19389;DHT22;9830;41.876;23.474;2023-04-01T15:31:18;10.70;99.90
19389;DHT22;9830;41.876;23.474;2023-04-01T15:39:58;10.90;99.90
19389;DHT22;9830;41.876;23.474;2023-04-01T15:42:42;11.00;99.90
19389;DHT22;9830;41.876;23.474;2023-04-01T15:48:20;10.70;99.90
19389;DHT22;9830;41.876;23.474;2023-04-01T16:19:03;10.00;99.90
19389;DHT22;9830;41.876;23.474;2023-04-01T16:21:54;9.90;99.90
19389;DHT22;9830;41.876;23.474;2023-04-01T16:27:24;9.90;99.90
19389;DHT22;9830;41.876;23.474;2023-04-01T16:40:49;9.70;99.90
19389;DHT22;9830;41.876;23.474;2023-04-01T16:43:28;9.70;99.90
19389;DHT22;9830;41.876;23.474;2023-04-01T16:51:41;9.40;99.90
19389;DHT22;9830;41.876;23.474;2023-04-01T16:59:44;9.20;99.90
19389;DHT22;9830;41.876;23.474;2023-04-01T17:02:13;9.10;99.90
19389;DHT22;9830;41.876;23.474;2023-04-01T17:05:08;9.20;99.90
19389;DHT22;9830;41.876;23.474;2023-04-01T17:10:53;9.40;99.90
19389;DHT22;9830;41.876;23.474;2023-04-01T17:13:34;9.50;99.90
19389;DHT22;9830;41.876;23.474;2023-04-01T17:18:50;9.70;99.90
19389;DHT22;9830;41.876;23.474;2023-04-01T17:24:00;9.70;99.90
19389;DHT22;9830;41.876;23.474;2023-04-01T17:26:50;9.60;99.90
19389;DHT22;9830;41.876;23.474;2023-04-01T17:32:39;9.70;99.90
19389;DHT22;9830;41.876;23.474;2023-04-01T17:35:33;9.70;99.90
19389;DHT22;9830;41.876;23.474;2023-04-01T17:41:06;9.70;99.90
19389;DHT22;9830;41.876;23.474;2023-04-01T18:01:08;9.00;99.90
19389;DHT22;9830;41.876;23.474;2023-04-01T18:06:47;8.50;99.90
19389;DHT22;9830;41.876;23.474;2023-04-01T18:09:43;8.40;99.90
19389;DHT22;9830;41.876;23.474;2023-04-01T18:23:30;7.70;99.90
19389;DHT22;9830;41.876;23.474;2023-04-01T18:26:33;7.60;99.90
19389;DHT22;9830;41.876;23.474;2023-04-01T18:29:26;7.50;99.90
19389;DHT22;9830;41.876;23.474;2023-04-01T18:32:24;7.40;99.90
19389;DHT22;9830;41.876;23.474;2023-04-01T18:37:53;7.30;99.90
19389;DHT22;9830;41.876;23.474;2023-04-01T18:40:38;7.40;99.90
19389;DHT22;9830;41.876;23.474;2023-04-01T18:43:14;7.50;99.90
19389;DHT22;9830;41.876;23.474;2023-04-01T18:45:53;7.60;99.90
19389;DHT22;9830;41.876;23.474;2023-04-01T18:54:00;7.70;99.90
19389;DHT22;9830;41.876;23.474;2023-04-01T18:56:37;7.70;99.90
19389;DHT22;9830;41.876;23.474;2023-04-01T18:59:24;7.60;99.90
19389;DHT22;9830;41.876;23.474;2023-04-01T19:04:43;7.60;99.90
19389;DHT22;9830;41.876;23.474;2023-04-01T19:10:00;7.70;99.90
19389;DHT22;9830;41.876;23.474;2023-04-01T19:12:28;7.80;99.90
19389;DHT22;9830;41.876;23.474;2023-04-01T19:18:21;7.80;99.90
19389;DHT22;9830;41.876;23.474;2023-04-01T19:20:53;7.80;99.90
19389;DHT22;9830;41.876;23.474;2023-04-01T19:29:26;7.70;99.90
19389;DHT22;9830;41.876;23.474;2023-04-01T19:32:23;7.70;99.90
19389;DHT22;9830;41.876;23.474;2023-04-01T19:37:27;7.90;99.90
19389;DHT22;9830;41.876;23.474;2023-04-01T19:53:37;8.00;99.90
19389;DHT22;9830;41.876;23.474;2023-04-01T19:56:22;7.90;99.90
19389;DHT22;9830;41.876;23.474;2023-04-01T20:04:13;7.90;99.90
19389;DHT22;9830;41.876;23.474;2023-04-01T20:10:09;8.00;99.90
19389;DHT22;9830;41.876;23.474;2023-04-01T20:12:49;7.90;99.90
19389;DHT22;9830;41.876;23.474;2023-04-01T20:15:27;7.90;99.90
19389;DHT22;9830;41.876;23.474;2023-04-01T20:17:57;7.80;99.90
19389;DHT22;9830;41.876;23.474;2023-04-01T20:20:27;7.80;99.90
19389;DHT22;9830;41.876;23.474;2023-04-01T20:25:59;7.70;99.90
19389;DHT22;9830;41.876;23.474;2023-04-01T20:28:47;7.60;99.90
19389;DHT22;9830;41.876;23.474;2023-04-01T20:39:20;7.70;99.90
19389;DHT22;9830;41.876;23.474;2023-04-01T20:52:56;7.50;99.90
19389;DHT22;9830;41.876;23.474;2023-04-01T21:03:12;7.30;99.90
19389;DHT22;9830;41.876;23.474;2023-04-01T21:08:29;7.20;99.90
19389;DHT22;9830;41.876;23.474;2023-04-01T21:11:10;7.20;99.90
19389;DHT22;9830;41.876;23.474;2023-04-01T21:14:07;7.10;99.90
19389;DHT22;9830;41.876;23.474;2023-04-01T21:22:06;6.90;99.90
19389;DHT22;9830;41.876;23.474;2023-04-01T22:13:20;6.30;99.90
19389;DHT22;9830;41.876;23.474;2023-04-01T22:18:29;6.30;99.90
19389;DHT22;9830;41.876;23.474;2023-04-01T22:26:33;6.10;99.90
19389;DHT22;9830;41.876;23.474;2023-04-01T22:31:47;6.40;99.90
19389;DHT22;9830;41.876;23.474;2023-04-01T22:37:16;6.30;99.90
19389;DHT22;9830;41.876;23.474;2023-04-01T22:56:09;6.40;99.90
19389;DHT22;9830;41.876;23.474;2023-04-01T22:58:42;6.40;99.90
19389;DHT22;9830;41.876;23.474;2023-04-01T23:01:24;6.30;99.90
19389;DHT22;9830;41.876;23.474;2023-04-01T23:03:52;6.30;99.90
19389;DHT22;9830;41.876;23.474;2023-04-01T23:06:22;6.20;99.90
19389;DHT22;9830;41.876;23.474;2023-04-01T23:08:58;6.20;99.90
19389;DHT22;9830;41.876;23.474;2023-04-01T23:17:00;5.90;99.90
19389;DHT22;9830;41.876;23.474;2023-04-01T23:19:52;5.90;99.90
19389;DHT22;9830;41.876;23.474;2023-04-01T23:38:33;6.00;99.90
19389;DHT22;9830;41.876;23.474;2023-04-01T23:40:59;6.00;99.90
19389;DHT22;9830;41.876;23.474;2023-04-01T23:43:37;6.00;99.90
19389;DHT22;9830;41.876;23.474;2023-04-01T23:46:05;5.90;99.90
19389;DHT22;9830;41.876;23.474;2023-04-01T23:48:44;5.90;99.90
19389;DHT22;9830;41.876;23.474;2023-04-01T23:51:26;5.90;99.90
19389;DHT22;9830;41.876;23.474;2023-04-01T23:56:41;5.90;99.90
19389;DHT22;9830;41.876;23.474;2023-04-01T23:59:37;6.00;99.90
